Time;durP1;ratioP1;P1;durP2;ratioP2;P2;SDS_P1;SDS_P2;PMS_P1;PMS_P2;Temp;Humidity;BMP_temperature;BMP_pressure;BME280_temperature;BME280_humidity;BME280_pressure;Samples;Min_cycle;Max_cycle;Signal;HPM_P1;HPM_P2
2023/06/30 00:00:25;;;;;;;5.00;4.53;;;22.20;99.90;;;;;;5939481;24;20562;-77
2023/06/30 00:02:55;;;;;;;4.83;4.43;;;22.20;99.90;;;;;;5939751;24;20469;-76
2023/06/30 00:05:22;;;;;;;5.03;4.37;;;22.20;99.90;;;;;;5937273;24;20502;-77
2023/06/30 00:07:54;;;;;;;5.30;4.13;;;22.20;99.90;;;;;;5924120;24;20468;-77
2023/06/30 00:10:21;;;;;;;5.70;4.30;;;22.10;99.90;;;;;;5940565;24;20874;-77
2023/06/30 00:12:49;;;;;;;4.47;4.07;;;22.10;99.90;;;;;;5931897;24;21010;-76
2023/06/30 00:15:16;;;;;;;4.90;4.50;;;22.10;99.90;;;;;;5929805;24;20492;-76
2023/06/30 00:17:43;;;;;;;7.37;5.07;;;22.20;99.90;;;;;;5937741;24;20435;-77
2023/06/30 00:20:11;;;;;;;5.73;4.90;;;22.10;99.90;;;;;;5942675;24;20521;-77
2023/06/30 00:22:38;;;;;;;4.77;4.27;;;22.10;99.90;;;;;;5936690;24;20468;-76
2023/06/30 00:25:08;;;;;;;5.87;4.40;;;22.10;99.90;;;;;;5929436;24;20956;-77
2023/06/30 00:27:35;;;;;;;4.50;4.20;;;22.10;99.90;;;;;;5942168;24;20470;-77
2023/06/30 00:30:02;;;;;;;6.50;4.40;;;22.10;99.90;;;;;;5933552;24;21165;-77
2023/06/30 00:32:31;;;;;;;4.60;4.20;;;22.10;99.90;;;;;;5926667;24;20498;-76
2023/06/30 00:34:59;;;;;;;4.40;4.00;;;22.10;99.90;;;;;;5941778;24;20443;-77
2023/06/30 00:37:26;;;;;;;4.67;4.27;;;22.00;99.90;;;;;;5926038;24;20451;-77
2023/06/30 00:39:53;;;;;;;4.80;4.30;;;22.00;99.90;;;;;;5936978;24;20466;-76
2023/06/30 00:42:21;;;;;;;4.93;4.10;;;22.00;99.90;;;;;;5939744;24;21739;-77
2023/06/30 00:44:48;;;;;;;5.23;4.77;;;21.80;99.90;;;;;;5943502;24;20466;-76
2023/06/30 00:47:15;;;;;;;5.17;4.67;;;21.80;99.90;;;;;;5940862;24;20467;-77
2023/06/30 00:49:43;;;;;;;4.50;4.20;;;21.70;99.90;;;;;;5939870;24;20500;-76
2023/06/30 00:52:10;;;;;;;5.20;4.70;;;21.70;99.90;;;;;;5931997;24;20447;-77
2023/06/30 00:54:38;;;;;;;4.93;4.43;;;21.70;99.90;;;;;;5944516;24;20490;-75
2023/06/30 00:57:07;;;;;;;5.20;4.77;;;21.70;99.90;;;;;;5943049;24;20448;-77
2023/06/30 00:59:35;;;;;;;5.20;4.80;;;21.70;99.90;;;;;;5920436;24;20442;-77
2023/06/30 01:02:08;;;;;;;4.30;3.90;;;21.70;99.90;;;;;;5939461;24;20506;-76
2023/06/30 01:04:43;;;;;;;6.07;4.47;;;21.70;99.90;;;;;;5929692;24;20434;-77
2023/06/30 01:07:18;;;;;;;5.10;4.60;;;21.70;99.90;;;;;;5937374;24;20435;-77
2023/06/30 01:09:52;;;;;;;4.80;4.37;;;21.60;99.90;;;;;;5934144;24;20530;-77
2023/06/30 01:12:20;;;;;;;5.30;4.80;;;21.60;99.90;;;;;;5941608;24;20470;-77
2023/06/30 01:14:49;;;;;;;5.50;4.90;;;21.60;99.90;;;;;;5928487;24;20507;-77
2023/06/30 01:17:18;;;;;;;4.90;4.50;;;21.60;99.90;;;;;;5941019;24;20474;-76
2023/06/30 01:19:47;;;;;;;5.60;4.80;;;21.50;99.90;;;;;;5926397;24;20439;-77
2023/06/30 01:22:21;;;;;;;4.60;4.20;;;21.40;99.90;;;;;;5938747;24;20519;-76
2023/06/30 01:24:51;;;;;;;5.00;4.23;;;21.30;99.90;;;;;;5928391;24;20622;-75
2023/06/30 01:27:21;;;;;;;4.63;4.23;;;21.30;99.90;;;;;;5930782;24;20931;-76
2023/06/30 01:29:50;;;;;;;5.43;4.50;;;21.30;99.90;;;;;;5929526;24;20443;-76
2023/06/30 01:32:17;;;;;;;4.67;4.20;;;21.20;99.90;;;;;;5940368;24;21358;-76
2023/06/30 01:34:44;;;;;;;4.30;4.00;;;21.20;99.90;;;;;;5937988;24;20527;-77
2023/06/30 01:37:12;;;;;;;4.37;3.87;;;21.20;99.90;;;;;;5932559;24;20438;-76
2023/06/30 01:39:39;;;;;;;4.90;4.43;;;21.20;99.90;;;;;;5923499;24;20435;-76
2023/06/30 01:42:07;;;;;;;4.83;4.40;;;21.20;99.90;;;;;;5937447;24;20442;-77
2023/06/30 01:44:36;;;;;;;5.00;4.70;;;21.20;99.90;;;;;;5947043;24;20469;-77
2023/06/30 01:47:06;;;;;;;4.70;4.37;;;21.30;99.90;;;;;;5937032;24;20491;-76
2023/06/30 01:49:34;;;;;;;5.27;4.87;;;21.30;99.90;;;;;;5940859;24;20468;-76
2023/06/30 01:52:01;;;;;;;5.10;4.47;;;21.30;99.90;;;;;;5939538;24;20439;-76
2023/06/30 01:54:28;;;;;;;4.63;4.23;;;21.30;99.90;;;;;;5935411;24;20485;-76
2023/06/30 01:56:56;;;;;;;7.00;4.80;;;21.20;99.90;;;;;;5928021;24;20555;-76
2023/06/30 01:59:23;;;;;;;4.83;4.20;;;21.20;99.90;;;;;;5935109;24;20448;-76
2023/06/30 02:01:50;;;;;;;5.90;4.80;;;21.10;99.90;;;;;;5937385;24;20538;-76
2023/06/30 02:04:19;;;;;;;4.90;4.43;;;21.10;99.90;;;;;;5938886;24;20474;-76
2023/06/30 02:06:46;;;;;;;5.10;4.70;;;21.00;99.90;;;;;;5927319;24;20519;-76
2023/06/30 02:09:13;;;;;;;4.90;4.50;;;21.00;99.90;;;;;;5919219;24;20560;-76
2023/06/30 02:11:40;;;;;;;4.97;4.67;;;20.90;99.90;;;;;;5943697;24;20526;-76
2023/06/30 02:14:07;;;;;;;5.50;4.90;;;20.90;99.90;;;;;;5940961;24;20525;-76
2023/06/30 02:16:34;;;;;;;5.50;5.10;;;20.90;99.90;;;;;;5940760;24;21809;-76
2023/06/30 02:19:01;;;;;;;4.97;4.53;;;20.90;99.90;;;;;;5945615;24;20493;-76
2023/06/30 02:21:30;;;;;;;4.63;4.23;;;20.80;99.90;;;;;;5945780;24;20462;-76
2023/06/30 02:23:57;;;;;;;5.07;4.67;;;20.90;99.90;;;;;;5933344;24;20546;-76
2023/06/30 02:26:24;;;;;;;4.83;4.23;;;20.90;99.90;;;;;;5939665;24;20524;-76
2023/06/30 02:28:51;;;;;;;6.10;4.87;;;20.80;99.90;;;;;;5933326;24;20492;-76
2023/06/30 02:31:18;;;;;;;5.13;4.63;;;20.70;99.90;;;;;;5940361;24;20456;-76
2023/06/30 02:33:45;;;;;;;5.00;4.60;;;20.80;99.90;;;;;;5943390;24;20454;-76
2023/06/30 02:36:12;;;;;;;4.80;4.40;;;20.80;99.90;;;;;;5930424;24;20525;-76
2023/06/30 02:38:41;;;;;;;5.07;4.67;;;20.80;99.90;;;;;;5941179;24;20480;-76
2023/06/30 02:41:08;;;;;;;5.67;5.17;;;20.80;99.90;;;;;;5944942;24;21058;-76
2023/06/30 02:43:35;;;;;;;5.10;4.70;;;20.90;99.90;;;;;;5937195;24;20984;-77
2023/06/30 02:46:02;;;;;;;5.67;5.17;;;20.90;99.90;;;;;;5926761;24;20443;-76
2023/06/30 02:48:30;;;;;;;4.73;4.30;;;20.90;99.90;;;;;;5936377;24;20470;-74
2023/06/30 02:50:57;;;;;;;5.10;4.63;;;21.00;99.90;;;;;;5940782;24;20434;-76
2023/06/30 02:53:24;;;;;;;4.80;4.50;;;21.00;99.90;;;;;;5933744;24;20517;-77
2023/06/30 02:55:52;;;;;;;4.93;4.53;;;21.00;99.90;;;;;;5933658;24;20454;-76
2023/06/30 02:58:19;;;;;;;5.30;4.73;;;21.00;99.90;;;;;;5932983;24;20439;-76
2023/06/30 03:00:46;;;;;;;5.67;5.17;;;21.00;99.90;;;;;;5933173;24;20526;-75
2023/06/30 03:03:13;;;;;;;6.07;5.57;;;20.90;99.90;;;;;;5940421;24;20477;-75
2023/06/30 03:05:40;;;;;;;5.83;5.37;;;20.90;99.90;;;;;;5941964;24;20441;-74
2023/06/30 03:08:07;;;;;;;5.17;4.87;;;20.90;99.90;;;;;;5939154;24;20575;-74
2023/06/30 03:10:35;;;;;;;5.43;5.00;;;20.90;99.90;;;;;;5935896;24;20450;-75
2023/06/30 03:13:03;;;;;;;5.93;5.20;;;20.80;99.90;;;;;;5933456;24;21448;-75
2023/06/30 03:15:30;;;;;;;5.53;5.13;;;20.80;99.90;;;;;;5940790;24;20501;-75
2023/06/30 03:17:57;;;;;;;5.67;5.17;;;20.60;99.90;;;;;;5935279;24;20428;-75
2023/06/30 03:20:25;;;;;;;5.60;5.03;;;20.50;99.90;;;;;;5945778;24;20440;-75
2023/06/30 03:22:53;;;;;;;5.87;5.27;;;20.50;99.90;;;;;;5939184;24;20821;-76
2023/06/30 03:25:21;;;;;;;5.40;5.00;;;20.40;99.90;;;;;;5942916;24;20526;-75
2023/06/30 03:27:48;;;;;;;5.87;5.27;;;20.30;99.90;;;;;;5937770;24;20453;-76
2023/06/30 03:30:17;;;;;;;5.90;5.40;;;20.30;99.90;;;;;;5940818;24;20532;-75
2023/06/30 03:32:45;;;;;;;5.87;5.47;;;20.20;99.90;;;;;;5929517;24;20468;-75
2023/06/30 03:35:12;;;;;;;6.40;5.83;;;20.20;99.90;;;;;;5940175;24;20435;-75
2023/06/30 03:37:39;;;;;;;6.87;6.17;;;20.20;99.90;;;;;;5935660;24;20433;-75
2023/06/30 03:40:07;;;;;;;5.70;5.30;;;20.20;99.90;;;;;;5928377;24;20807;-75
2023/06/30 03:42:34;;;;;;;5.20;4.80;;;20.10;99.90;;;;;;5933930;24;20472;-76
2023/06/30 03:45:01;;;;;;;6.47;5.73;;;20.10;99.90;;;;;;5938106;24;20500;-75
2023/06/30 03:47:29;;;;;;;6.03;5.30;;;20.10;99.90;;;;;;5936687;23;21031;-75
2023/06/30 03:49:56;;;;;;;6.10;5.60;;;20.10;99.90;;;;;;5939748;24;20489;-75
2023/06/30 03:52:23;;;;;;;5.93;5.53;;;20.10;99.90;;;;;;5930815;24;20711;-75
2023/06/30 03:54:51;;;;;;;5.90;5.50;;;20.10;99.90;;;;;;5937285;24;20454;-75
2023/06/30 03:57:18;;;;;;;7.03;6.43;;;20.10;99.90;;;;;;5941804;24;20448;-75
2023/06/30 03:59:46;;;;;;;5.67;5.27;;;20.10;99.90;;;;;;5941451;24;20466;-76
2023/06/30 04:02:13;;;;;;;5.93;5.40;;;20.10;99.90;;;;;;5934152;24;20464;-75
2023/06/30 04:04:41;;;;;;;7.40;6.70;;;20.10;99.90;;;;;;5928071;24;20572;-75
2023/06/30 04:07:08;;;;;;;6.53;6.00;;;20.20;99.90;;;;;;5935038;24;20451;-75
2023/06/30 04:09:36;;;;;;;6.00;5.60;;;20.10;99.90;;;;;;5939614;24;20883;-75
2023/06/30 04:12:03;;;;;;;6.30;5.80;;;20.00;99.90;;;;;;5942191;24;20464;-75
2023/06/30 04:14:30;;;;;;;7.10;6.40;;;19.90;99.90;;;;;;5936433;24;20443;-76
2023/06/30 04:16:57;;;;;;;7.33;5.40;;;19.90;99.90;;;;;;5929417;24;20548;-76
2023/06/30 04:19:25;;;;;;;6.43;5.83;;;19.90;99.90;;;;;;5924419;24;20443;-77
2023/06/30 04:21:53;;;;;;;5.83;5.27;;;19.80;99.90;;;;;;5929180;24;20448;-78
2023/06/30 04:24:20;;;;;;;6.83;6.30;;;19.80;99.90;;;;;;5934514;24;20527;-76
2023/06/30 04:26:47;;;;;;;6.03;5.53;;;19.80;99.90;;;;;;5930501;24;21022;-74
2023/06/30 04:29:14;;;;;;;6.77;6.17;;;19.90;99.90;;;;;;5934740;24;20507;-75
2023/06/30 04:31:41;;;;;;;6.17;5.57;;;19.90;99.90;;;;;;5935824;24;20437;-74
2023/06/30 04:34:08;;;;;;;6.63;6.00;;;20.00;99.90;;;;;;5941850;24;20788;-73
2023/06/30 04:36:35;;;;;;;6.43;5.80;;;20.00;99.90;;;;;;5938912;24;20472;-73
2023/06/30 04:39:04;;;;;;;6.83;6.30;;;19.90;99.90;;;;;;5934695;24;20447;-73
2023/06/30 04:41:31;;;;;;;7.07;6.50;;;20.00;99.90;;;;;;5930324;24;20437;-73
2023/06/30 04:43:59;;;;;;;6.30;5.80;;;20.00;99.90;;;;;;5930487;24;21017;-73
2023/06/30 04:46:26;;;;;;;6.80;6.10;;;19.90;99.90;;;;;;5939312;24;20530;-77
2023/06/30 04:48:55;;;;;;;7.33;6.80;;;19.90;99.90;;;;;;5925935;24;20503;-79
2023/06/30 04:51:23;;;;;;;7.33;6.17;;;19.90;99.90;;;;;;5929031;24;20436;-78
2023/06/30 04:53:51;;;;;;;7.50;6.80;;;19.80;99.90;;;;;;5924895;24;22088;-79
2023/06/30 04:56:20;;;;;;;6.50;6.00;;;19.80;99.90;;;;;;5924139;24;20450;-79
2023/06/30 04:58:50;;;;;;;7.07;6.53;;;19.70;99.90;;;;;;5924581;24;20520;-77
2023/06/30 05:01:18;;;;;;;7.03;6.40;;;19.70;99.90;;;;;;5927832;24;20446;-77
2023/06/30 05:03:45;;;;;;;6.87;6.27;;;19.80;99.90;;;;;;5934737;24;20471;-78
2023/06/30 05:06:12;;;;;;;7.63;7.03;;;19.80;99.90;;;;;;5925849;24;20446;-79
2023/06/30 05:08:39;;;;;;;7.50;6.90;;;19.90;99.90;;;;;;5937104;24;20474;-80
2023/06/30 05:11:06;;;;;;;8.53;7.70;;;19.90;99.90;;;;;;5936831;24;20847;-78
2023/06/30 05:13:34;;;;;;;8.23;7.53;;;19.90;99.90;;;;;;5941750;24;20470;-77
2023/06/30 05:16:01;;;;;;;8.80;7.30;;;19.90;99.90;;;;;;5938174;24;20517;-74
2023/06/30 05:18:28;;;;;;;8.00;7.30;;;20.00;99.90;;;;;;5928083;24;20474;-73
2023/06/30 05:20:56;;;;;;;7.10;6.60;;;20.00;99.90;;;;;;5940548;24;20938;-75
2023/06/30 05:23:23;;;;;;;7.40;6.50;;;20.10;99.90;;;;;;5930859;24;20471;-75
2023/06/30 05:25:50;;;;;;;7.13;6.63;;;20.20;99.90;;;;;;5934339;24;20536;-75
2023/06/30 05:28:17;;;;;;;8.27;7.53;;;20.30;99.90;;;;;;5937723;24;20439;-75
2023/06/30 05:30:46;;;;;;;7.90;7.07;;;20.30;99.90;;;;;;5926575;24;20853;-75
2023/06/30 05:33:13;;;;;;;7.93;7.33;;;20.40;99.90;;;;;;5917774;24;20463;-75
2023/06/30 05:35:40;;;;;;;11.87;8.27;;;20.40;99.90;;;;;;5924599;24;20440;-81
2023/06/30 05:38:07;;;;;;;8.83;8.03;;;20.30;99.90;;;;;;5915459;24;20453;-74
2023/06/30 05:40:34;;;;;;;10.37;8.70;;;20.40;99.90;;;;;;5924772;24;20446;-74
2023/06/30 05:43:01;;;;;;;8.43;7.83;;;20.30;99.90;;;;;;5927485;24;20561;-75
2023/06/30 05:45:29;;;;;;;9.83;9.03;;;20.10;99.90;;;;;;5928603;24;20526;-75
2023/06/30 05:47:57;;;;;;;10.17;9.27;;;20.00;99.90;;;;;;5931079;24;20450;-75
2023/06/30 05:50:27;;;;;;;11.00;10.10;;;19.80;99.90;;;;;;5930864;24;20495;-75
2023/06/30 05:52:54;;;;;;;10.40;9.50;;;19.80;99.90;;;;;;5936072;24;20472;-75
2023/06/30 05:55:21;;;;;;;9.70;8.97;;;19.60;99.90;;;;;;5943282;24;20503;-75
2023/06/30 05:57:48;;;;;;;10.40;9.53;;;19.50;99.90;;;;;;5937139;24;20525;-75
2023/06/30 06:00:16;;;;;;;11.40;10.40;;;19.50;99.90;;;;;;5936610;24;20530;-75
2023/06/30 06:02:43;;;;;;;10.47;9.57;;;19.50;99.90;;;;;;5936176;24;20544;-76
2023/06/30 06:05:12;;;;;;;10.73;9.93;;;19.50;99.90;;;;;;5921526;24;20467;-76
2023/06/30 06:07:40;;;;;;;11.33;10.43;;;19.50;99.90;;;;;;5924698;24;20450;-75
2023/06/30 06:10:08;;;;;;;13.87;12.87;;;19.50;99.90;;;;;;5923386;24;20478;-76
2023/06/30 06:12:35;;;;;;;13.03;11.37;;;19.50;99.90;;;;;;5939840;24;20511;-75
2023/06/30 06:15:02;;;;;;;11.43;10.47;;;19.50;99.90;;;;;;5937392;24;20518;-75
2023/06/30 06:17:29;;;;;;;12.40;11.20;;;19.50;99.90;;;;;;5939459;24;20435;-75
2023/06/30 06:19:58;;;;;;;11.00;10.00;;;19.50;99.90;;;;;;5930990;24;21078;-76
2023/06/30 06:22:26;;;;;;;10.50;9.67;;;19.50;99.90;;;;;;5927970;24;20459;-74
2023/06/30 06:24:53;;;;;;;12.80;11.73;;;19.50;99.90;;;;;;5936835;24;20443;-74
2023/06/30 06:27:20;;;;;;;12.30;11.20;;;19.50;99.90;;;;;;5935285;24;20447;-74
2023/06/30 06:29:47;;;;;;;11.70;10.80;;;19.50;99.90;;;;;;5932285;24;20498;-74
2023/06/30 06:32:18;;;;;;;11.60;10.33;;;19.60;99.90;;;;;;5922927;24;20490;-74
2023/06/30 06:34:46;;;;;;;11.20;10.40;;;19.60;99.90;;;;;;5919237;24;20439;-75
2023/06/30 06:37:13;;;;;;;12.73;11.80;;;19.70;99.90;;;;;;5925848;24;20572;-74
2023/06/30 06:39:42;;;;;;;13.10;11.90;;;19.70;99.90;;;;;;5929710;24;20560;-76
2023/06/30 06:42:09;;;;;;;13.23;11.80;;;19.70;99.90;;;;;;5913693;24;20462;-75
2023/06/30 06:44:36;;;;;;;11.17;10.37;;;19.70;99.90;;;;;;5931691;24;20942;-75
2023/06/30 06:47:41;;;;;;;13.30;12.20;;;19.80;99.90;;;;;;5933779;24;20452;-75
2023/06/30 06:50:08;;;;;;;11.37;10.57;;;19.80;99.90;;;;;;5931437;24;20918;-75
2023/06/30 06:52:35;;;;;;;12.70;11.60;;;19.80;99.90;;;;;;5934249;24;20463;-75
2023/06/30 06:55:05;;;;;;;13.07;11.97;;;19.90;99.90;;;;;;5931992;24;20439;-75
2023/06/30 06:57:32;;;;;;;11.47;10.63;;;19.90;99.90;;;;;;5939144;24;20451;-75
2023/06/30 06:59:59;;;;;;;11.93;11.13;;;20.00;99.90;;;;;;5940607;24;20527;-74
2023/06/30 07:02:26;;;;;;;11.47;10.57;;;20.00;99.90;;;;;;5941043;24;20464;-74
2023/06/30 07:04:53;;;;;;;11.77;10.97;;;20.00;99.90;;;;;;5939412;24;20495;-75
2023/06/30 07:07:20;;;;;;;12.03;11.13;;;20.10;99.90;;;;;;5941032;24;20507;-75
2023/06/30 07:09:47;;;;;;;11.83;11.00;;;20.10;99.90;;;;;;5929403;24;20479;-75
2023/06/30 07:12:16;;;;;;;14.10;13.00;;;20.10;99.90;;;;;;5934615;24;20856;-75
2023/06/30 07:14:43;;;;;;;13.57;12.37;;;20.10;99.90;;;;;;5926553;24;20448;-75
2023/06/30 07:17:11;;;;;;;12.90;11.80;;;20.10;99.90;;;;;;5924368;24;20457;-75
2023/06/30 07:19:38;;;;;;;12.53;11.63;;;20.20;99.90;;;;;;5935364;24;20454;-75
2023/06/30 07:22:05;;;;;;;13.90;12.70;;;20.20;99.90;;;;;;5931192;24;20746;-75
2023/06/30 07:24:32;;;;;;;13.47;12.37;;;20.10;99.90;;;;;;5928590;24;21038;-75
2023/06/30 07:27:00;;;;;;;12.27;11.23;;;20.10;99.90;;;;;;5916937;24;20456;-75
2023/06/30 07:29:28;;;;;;;13.37;12.27;;;20.10;99.90;;;;;;5923550;24;20456;-75
2023/06/30 07:31:55;;;;;;;11.97;11.07;;;20.10;99.90;;;;;;5925810;24;20485;-75
2023/06/30 07:34:23;;;;;;;13.43;12.43;;;20.10;99.90;;;;;;5917840;24;20619;-74
2023/06/30 07:36:51;;;;;;;13.07;11.97;;;20.20;99.90;;;;;;5930632;24;20777;-74
2023/06/30 07:39:18;;;;;;;14.03;12.83;;;20.20;99.90;;;;;;5934081;24;20444;-75
2023/06/30 07:41:45;;;;;;;14.43;13.30;;;20.20;99.90;;;;;;5937126;24;20466;-74
2023/06/30 07:44:12;;;;;;;15.47;14.27;;;20.20;99.90;;;;;;5939890;24;21457;-75
2023/06/30 07:46:40;;;;;;;13.70;12.40;;;20.20;99.90;;;;;;5939651;24;20470;-74
2023/06/30 07:49:08;;;;;;;14.00;12.70;;;20.20;99.90;;;;;;5941210;24;20514;-75
2023/06/30 07:51:35;;;;;;;15.53;14.43;;;20.20;99.90;;;;;;5943759;24;20455;-74
2023/06/30 07:54:02;;;;;;;14.40;13.30;;;20.10;99.90;;;;;;5937525;24;20525;-75
2023/06/30 07:56:30;;;;;;;15.20;13.80;;;20.00;99.90;;;;;;5934658;24;21043;-75
2023/06/30 07:58:57;;;;;;;15.00;13.90;;;19.80;99.90;;;;;;5935044;24;20577;-75
2023/06/30 08:01:24;;;;;;;15.53;14.30;;;19.70;99.90;;;;;;5935297;24;20494;-75
2023/06/30 08:03:52;;;;;;;18.23;16.73;;;19.50;99.90;;;;;;5944215;24;20422;-75
2023/06/30 08:06:19;;;;;;;18.67;17.17;;;19.30;99.90;;;;;;5937456;24;20950;-75
2023/06/30 08:08:46;;;;;;;18.23;16.73;;;19.20;99.90;;;;;;5936103;24;20470;-74
2023/06/30 08:11:13;;;;;;;19.40;17.40;;;19.10;99.90;;;;;;5932778;24;20471;-75
2023/06/30 08:13:40;;;;;;;20.10;18.30;;;19.00;99.90;;;;;;5933302;24;20443;-75
2023/06/30 08:16:07;;;;;;;20.73;18.73;;;18.90;99.90;;;;;;5934604;24;20950;-75
2023/06/30 08:18:35;;;;;;;19.97;18.07;;;18.80;99.90;;;;;;5926223;24;20524;-75
2023/06/30 08:21:04;;;;;;;22.23;20.13;;;18.70;99.90;;;;;;5933172;24;20474;-75
2023/06/30 08:23:31;;;;;;;23.00;20.80;;;18.60;99.90;;;;;;5930502;24;21031;-76
2023/06/30 08:25:58;;;;;;;25.67;23.33;;;18.50;99.90;;;;;;5938454;24;20526;-76
2023/06/30 08:28:25;;;;;;;25.13;22.93;;;18.50;99.90;;;;;;5940174;24;20553;-76
2023/06/30 08:30:52;;;;;;;25.80;23.40;;;18.40;99.90;;;;;;5931657;24;20475;-76
2023/06/30 08:33:21;;;;;;;25.13;22.83;;;18.50;99.90;;;;;;5928705;24;20814;-77
2023/06/30 08:35:48;;;;;;;22.87;20.97;;;18.50;99.90;;;;;;5931638;24;20440;-77
2023/06/30 08:38:17;;;;;;;23.57;21.23;;;18.40;99.90;;;;;;5934292;24;20586;-77
2023/06/30 08:40:44;;;;;;;22.50;20.40;;;18.40;99.90;;;;;;5937153;24;20525;-77
2023/06/30 08:43:11;;;;;;;22.33;20.13;;;18.30;99.90;;;;;;5940697;24;20484;-77
2023/06/30 08:45:40;;;;;;;22.57;20.47;;;18.30;99.90;;;;;;5936386;24;20469;-77
2023/06/30 08:48:08;;;;;;;25.87;23.50;;;18.30;99.90;;;;;;5932444;24;20455;-77
2023/06/30 08:50:36;;;;;;;27.00;24.40;;;18.40;99.90;;;;;;5931558;24;20481;-77
2023/06/30 08:53:03;;;;;;;25.20;22.90;;;18.40;99.90;;;;;;5923751;24;21261;-77
2023/06/30 08:55:32;;;;;;;27.17;24.57;;;18.40;99.90;;;;;;5934472;24;20431;-78
2023/06/30 08:57:59;;;;;;;23.70;21.40;;;18.40;99.90;;;;;;5932581;24;20468;-78
2023/06/30 09:00:26;;;;;;;29.57;26.67;;;18.50;99.90;;;;;;5922811;24;20473;-78
2023/06/30 09:02:55;;;;;;;27.77;25.17;;;18.50;99.90;;;;;;5930713;23;20487;-78
2023/06/30 09:05:24;;;;;;;28.30;25.73;;;18.60;99.90;;;;;;5928340;24;20440;-79
2023/06/30 09:07:54;;;;;;;26.53;24.00;;;18.60;99.90;;;;;;5935710;24;20451;-79
2023/06/30 09:10:24;;;;;;;27.63;25.10;;;18.60;99.90;;;;;;5933868;24;20541;-77
2023/06/30 09:12:55;;;;;;;25.70;23.40;;;18.60;99.90;;;;;;5936445;24;20490;-77
2023/06/30 09:15:23;;;;;;;25.57;23.47;;;18.60;99.90;;;;;;5932230;24;20482;-79
2023/06/30 09:17:50;;;;;;;24.47;22.30;;;18.60;99.90;;;;;;5934077;24;20457;-78
2023/06/30 09:20:17;;;;;;;25.37;22.97;;;18.70;99.90;;;;;;5941446;24;20454;-77
2023/06/30 09:22:45;;;;;;;22.40;20.40;;;18.70;99.90;;;;;;5931814;24;20836;-77
2023/06/30 09:25:40;;;;;;;24.47;22.47;;;18.70;99.90;;;;;;5933104;24;21015;-78
2023/06/30 09:28:14;;;;;;;21.67;19.80;;;18.70;99.90;;;;;;5931959;24;20452;-78
2023/06/30 09:30:44;;;;;;;26.23;23.97;;;18.60;99.90;;;;;;5931514;24;20467;-78
2023/06/30 09:33:15;;;;;;;52.17;47.67;;;18.60;99.90;;;;;;5933935;24;20502;-78
2023/06/30 09:35:43;;;;;;;26.23;24.07;;;18.60;99.90;;;;;;5936097;24;20431;-77
2023/06/30 09:38:11;;;;;;;25.10;23.10;;;18.70;99.90;;;;;;5934597;24;20443;-78
2023/06/30 09:40:42;;;;;;;25.30;23.00;;;18.70;99.90;;;;;;5931805;24;20461;-78
2023/06/30 09:43:09;;;;;;;27.13;24.83;;;18.80;99.90;;;;;;5927075;24;20538;-78
2023/06/30 09:45:37;;;;;;;25.53;23.43;;;18.80;99.90;;;;;;5935900;24;20475;-78
2023/06/30 09:48:06;;;;;;;26.00;23.80;;;18.80;99.90;;;;;;5933771;24;20447;-77
2023/06/30 09:50:33;;;;;;;26.60;24.23;;;18.80;99.90;;;;;;5929204;24;20517;-77
2023/06/30 09:53:01;;;;;;;27.20;24.90;;;18.90;99.90;;;;;;5932552;24;20482;-77
2023/06/30 09:55:29;;;;;;;25.27;22.97;;;18.90;99.90;;;;;;5935408;24;20452;-78
2023/06/30 09:57:57;;;;;;;25.20;23.10;;;19.00;99.90;;;;;;5940336;24;20579;-77
2023/06/30 10:00:25;;;;;;;25.80;23.60;;;19.00;99.90;;;;;;5943978;24;20428;-77
2023/06/30 10:03:05;;;;;;;26.73;24.53;;;19.10;99.90;;;;;;5941170;24;20571;-78
2023/06/30 10:05:32;;;;;;;25.83;23.33;;;19.10;99.90;;;;;;5940895;24;20439;-78
2023/06/30 10:08:01;;;;;;;22.80;20.80;;;19.20;99.90;;;;;;5943647;24;20443;-77
2023/06/30 10:10:29;;;;;;;24.80;22.57;;;19.10;99.90;;;;;;5935770;24;20475;-77
2023/06/30 10:12:58;;;;;;;27.20;24.77;;;19.10;99.90;;;;;;5936339;24;20526;-77
2023/06/30 10:15:26;;;;;;;28.17;25.60;;;19.10;99.90;;;;;;5944699;24;20439;-77
2023/06/30 10:17:55;;;;;;;26.83;24.57;;;19.00;99.90;;;;;;5942750;24;20522;-77
2023/06/30 10:20:23;;;;;;;27.33;24.83;;;19.10;99.90;;;;;;5932519;24;20439;-77
2023/06/30 10:22:52;;;;;;;30.50;27.80;;;19.00;99.90;;;;;;5933134;24;20469;-77
2023/06/30 10:25:21;;;;;;;29.83;27.10;;;19.10;99.90;;;;;;5932902;24;21039;-77
2023/06/30 10:27:49;;;;;;;30.07;27.00;;;19.10;99.90;;;;;;5936694;24;20524;-77
2023/06/30 10:30:17;;;;;;;31.80;29.00;;;19.10;99.90;;;;;;5934417;24;20447;-75
2023/06/30 10:32:44;;;;;;;34.07;30.97;;;19.10;99.90;;;;;;5930356;24;20981;-78
2023/06/30 10:35:14;;;;;;;32.93;30.10;;;19.10;99.90;;;;;;5936736;24;20446;-77
2023/06/30 10:37:43;;;;;;;35.63;32.40;;;19.10;99.90;;;;;;5941857;24;20848;-77
2023/06/30 10:40:25;;;;;;;36.73;33.43;;;19.20;99.90;;;;;;5944446;24;20446;-78
2023/06/30 10:42:55;;;;;;;38.73;35.37;;;19.20;99.90;;;;;;5943211;24;20472;-79
2023/06/30 10:45:27;;;;;;;39.57;35.90;;;19.30;99.90;;;;;;5939056;24;20436;-78
2023/06/30 10:47:54;;;;;;;39.47;35.77;;;19.40;99.90;;;;;;5932063;24;20531;-78
2023/06/30 10:50:22;;;;;;;39.07;35.60;;;19.40;99.90;;;;;;5931366;24;20508;-76
2023/06/30 10:52:52;;;;;;;36.43;33.30;;;19.50;99.90;;;;;;5932361;24;20455;-77
2023/06/30 10:55:27;;;;;;;32.90;29.90;;;19.60;99.90;;;;;;5935328;24;20546;-78
2023/06/30 10:57:55;;;;;;;43.37;39.27;;;19.70;99.90;;;;;;5929560;24;20439;-85
2023/06/30 11:00:29;;;;;;;37.23;33.63;;;19.70;99.90;;;;;;5930799;24;20447;-85
2023/06/30 11:02:58;;;;;;;34.50;31.27;;;19.70;99.90;;;;;;5931129;24;20488;-78
2023/06/30 11:05:26;;;;;;;34.40;31.30;;;19.70;99.90;;;;;;5932248;24;20536;-87
2023/06/30 11:08:04;;;;;;;36.27;32.83;;;19.70;99.90;;;;;;5935963;24;20498;-88
2023/06/30 11:10:35;;;;;;;38.13;34.57;;;19.70;99.90;;;;;;5929246;24;20497;-87
2023/06/30 11:13:05;;;;;;;35.83;32.60;;;19.70;99.90;;;;;;5937158;24;20439;-87
2023/06/30 11:15:38;;;;;;;36.77;33.37;;;19.80;99.90;;;;;;5936861;24;20936;-86
2023/06/30 11:18:09;;;;;;;34.50;31.40;;;19.70;99.90;;;;;;5944237;24;20444;-87
2023/06/30 11:20:36;;;;;;;36.50;33.20;;;19.70;99.90;;;;;;5924958;24;20443;-83
2023/06/30 11:23:06;;;;;;;36.90;33.60;;;19.70;99.90;;;;;;5924558;24;20454;-83
2023/06/30 11:25:34;;;;;;;36.63;33.37;;;19.70;99.90;;;;;;5931550;24;21351;-84
2023/06/30 11:28:04;;;;;;;35.07;31.97;;;19.70;99.90;;;;;;5929816;24;20498;-84
2023/06/30 11:30:37;;;;;;;37.17;33.77;;;19.80;99.90;;;;;;5929565;24;20447;-84
2023/06/30 11:33:05;;;;;;;35.70;32.60;;;19.80;99.90;;;;;;5933736;24;20443;-84
2023/06/30 11:35:34;;;;;;;35.43;32.23;;;19.90;99.90;;;;;;5928873;24;20498;-83
2023/06/30 11:38:01;;;;;;;36.77;33.33;;;19.80;99.90;;;;;;5935223;24;20438;-83
2023/06/30 11:40:29;;;;;;;35.37;32.20;;;19.80;99.90;;;;;;5939668;24;20474;-83
2023/06/30 11:42:56;;;;;;;38.90;35.23;;;19.80;99.90;;;;;;5935005;24;20448;-84
2023/06/30 11:45:27;;;;;;;33.23;29.97;;;19.90;99.90;;;;;;5935201;24;20468;-83
2023/06/30 11:47:56;;;;;;;31.37;28.47;;;19.80;99.90;;;;;;5918468;24;20451;-82
2023/06/30 11:50:25;;;;;;;32.40;29.60;;;19.70;99.90;;;;;;5940351;24;20821;-83
2023/06/30 11:52:52;;;;;;;32.17;29.27;;;19.70;99.90;;;;;;5928222;24;20815;-84
2023/06/30 11:55:20;;;;;;;30.60;27.97;;;19.70;99.90;;;;;;5923326;24;20443;-80
2023/06/30 11:57:50;;;;;;;33.93;30.50;;;19.60;99.90;;;;;;5921987;24;20530;-76
2023/06/30 12:00:19;;;;;;;33.90;30.80;;;19.70;99.90;;;;;;5929603;24;20435;-76
2023/06/30 12:02:48;;;;;;;32.83;29.70;;;19.70;99.90;;;;;;5940473;24;20494;-78
2023/06/30 12:05:17;;;;;;;31.33;28.43;;;19.70;99.90;;;;;;5943267;24;20946;-77
2023/06/30 12:07:45;;;;;;;32.17;29.20;;;19.80;99.90;;;;;;5937530;24;20435;-78
2023/06/30 12:10:12;;;;;;;33.13;30.23;;;19.80;99.90;;;;;;5935596;24;20474;-78
2023/06/30 12:12:39;;;;;;;31.20;28.10;;;19.80;99.90;;;;;;5941890;24;20471;-75
2023/06/30 12:15:11;;;;;;;29.47;26.87;;;19.80;99.90;;;;;;5943520;24;20836;-77
2023/06/30 12:17:42;;;;;;;31.97;28.97;;;19.80;99.90;;;;;;5936996;24;20447;-76
2023/06/30 12:20:10;;;;;;;32.80;29.80;;;19.90;99.90;;;;;;5935603;24;20444;-76
2023/06/30 12:22:41;;;;;;;32.20;29.03;;;19.80;99.90;;;;;;5945982;24;20526;-75
2023/06/30 12:25:11;;;;;;;32.27;29.27;;;19.80;99.90;;;;;;5936991;24;20547;-82
2023/06/30 12:27:42;;;;;;;34.33;31.10;;;19.80;99.90;;;;;;5943805;24;20439;-86
2023/06/30 12:30:17;;;;;;;32.30;29.30;;;19.80;99.90;;;;;;5938022;24;20474;-80
2023/06/30 12:32:45;;;;;;;30.03;27.30;;;19.90;99.90;;;;;;5927690;24;20470;-77
2023/06/30 12:35:13;;;;;;;32.17;29.03;;;19.90;99.90;;;;;;5935493;24;20961;-78
2023/06/30 12:37:43;;;;;;;31.77;28.60;;;19.90;99.90;;;;;;5939814;24;20472;-78
2023/06/30 12:40:13;;;;;;;32.33;29.30;;;20.10;99.90;;;;;;5923124;24;20452;-76